Zim Chicago — A8SI9 — position and weather

sailwx.info

Track history (hours):
 
Tides and Currents Weather Stations Pressure Air Temp Water Temp Dewpoint Dewpoint Depression Visibility Wind Speed Wind Dir Waves Ship Positions

Zim Chicago

Last reported at 2017-Aug-20 16:25 UTC. Time now 2017-Aug-23 05:54 UTC.
Position N 25°28' W 114°36'.

Length 334 m; draft 11.4 m.

Type: Cargo ship. MMSI: 636014223.

Date/timePositionNaut miles runAvg speedWind from/ knotsBaromVisibWave heightAir tempDewpointWater temp
2017-Aug-20 16:25N 25°28' W 114°36'7014.6
2017-Aug-20 11:37N 24°46' W 113°34'214.9
2017-Aug-20 11:30N 24°45' W 113°33'714.6
2017-Aug-20 11:00N 24°41' W 113°26'1914.8
2017-Aug-20 09:44N 24°30' W 113°10'  
2017-Aug-13 19:16N 09°07' W 079°47'2 8.9
2017-Aug-13 19:00N 09°08' W 079°49'4 8.7
2017-Aug-13 18:30N 09°11' W 079°52'4 8.6
2017-Aug-13 18:00N 09°13' W 079°55'2 3.2
2017-Aug-13 17:30N 09°15' W 079°55'1 1.5
2017-Aug-13 17:00N 09°15' W 079°54'0 0.1
2017-Aug-13 16:29N 09°15' W 079°54'0 0.0
2017-Aug-13 15:53N 09°15' W 079°54'0 0.1
2017-Aug-13 15:29N 09°15' W 079°54'0 0.0
2017-Aug-13 14:59N 09°15' W 079°54'0 0.1
2017-Aug-13 14:29N 09°15' W 079°54'0 0.1
2017-Aug-13 13:59N 09°15' W 079°54'0 0.1
2017-Aug-13 13:26N 09°15' W 079°54'0 0.0
2017-Aug-13 12:59N 09°15' W 079°54'0 0.0
2017-Aug-13 12:29N 09°15' W 079°54'0 0.1
2017-Aug-13 11:56N 09°15' W 079°54'0 0.8
2017-Aug-13 11:30N 09°16' W 079°55'0 0.7
2017-Aug-13 11:00N 09°16' W 079°55'0 0.5
2017-Aug-13 10:30N 09°16' W 079°55'0 0.2
2017-Aug-13 10:00N 09°16' W 079°55'0 0.3
2017-Aug-13 09:30N 09°17' W 079°55'0 0.7
2017-Aug-13 09:00N 09°17' W 079°55'1 1.1
2017-Aug-13 08:30N 09°17' W 079°55'2 4.0
2017-Aug-13 08:00N 09°19' W 079°55'3 6.9
2017-Aug-13 07:30N 09°23' W 079°55'4 7.1
2017-Aug-13 07:00N 09°26' W 079°56'2 4.7
2017-Aug-13 06:30N 09°25' W 079°58'0 0.2
2017-Aug-13 05:59N 09°25' W 079°58'0 0.0
2017-Aug-13 05:29N 09°25' W 079°58'0 0.0
2017-Aug-13 04:59N 09°25' W 079°58'0 0.0
2017-Aug-13 04:29N 09°25' W 079°58'0 0.0
2017-Aug-13 03:59N 09°25' W 079°58'0 0.2
2017-Aug-13 03:29N 09°25' W 079°58'1 1.6
2017-Aug-13 03:01N 09°25' W 079°57'3 5.3
2017-Aug-13 02:30N 09°26' W 079°55'3 5.7
2017-Aug-13 02:01N 09°29' W 079°53'1 2.7
2017-Aug-13 01:31N 09°30' W 079°53'611.0
2017-Aug-13 01:00N 09°35' W 079°51'714.1
2017-Aug-13 00:30N 09°42' W 079°50'815.4
2017-Aug-12 23:59N 09°50' W 079°48'  
Track history (hours):
 
Tides and Currents Weather Stations Pressure Air Temp Water Temp Dewpoint Dewpoint Depression Visibility Wind Speed Wind Dir Waves Ship Positions

Zim Chicago

Last reported at 2017-Aug-20 16:25 UTC. Time now 2017-Aug-23 05:54 UTC.
Position N 25°28' W 114°36'.

Length 334 m; draft 11.4 m.

Type: Cargo ship. MMSI: 636014223.

Date/timePositionNaut miles runAvg speedWind from/ knotsBaromVisibWave heightAir tempDewpointWater temp
2017-Aug-20 16:25N 25°28' W 114°36'7014.6
2017-Aug-20 11:37N 24°46' W 113°34'214.9
2017-Aug-20 11:30N 24°45' W 113°33'714.6
2017-Aug-20 11:00N 24°41' W 113°26'1914.8
2017-Aug-20 09:44N 24°30' W 113°10'  
2017-Aug-13 19:16N 09°07' W 079°47'2 8.9
2017-Aug-13 19:00N 09°08' W 079°49'4 8.7
2017-Aug-13 18:30N 09°11' W 079°52'4 8.6
2017-Aug-13 18:00N 09°13' W 079°55'2 3.2
2017-Aug-13 17:30N 09°15' W 079°55'1 1.5
2017-Aug-13 17:00N 09°15' W 079°54'0 0.1
2017-Aug-13 16:29N 09°15' W 079°54'0 0.0
2017-Aug-13 15:53N 09°15' W 079°54'0 0.1
2017-Aug-13 15:29N 09°15' W 079°54'0 0.0
2017-Aug-13 14:59N 09°15' W 079°54'0 0.1
2017-Aug-13 14:29N 09°15' W 079°54'0 0.1
2017-Aug-13 13:59N 09°15' W 079°54'0 0.1
2017-Aug-13 13:26N 09°15' W 079°54'0 0.0
2017-Aug-13 12:59N 09°15' W 079°54'0 0.0
2017-Aug-13 12:29N 09°15' W 079°54'0 0.1
2017-Aug-13 11:56N 09°15' W 079°54'0 0.8
2017-Aug-13 11:30N 09°16' W 079°55'0 0.7
2017-Aug-13 11:00N 09°16' W 079°55'0 0.5
2017-Aug-13 10:30N 09°16' W 079°55'0 0.2
2017-Aug-13 10:00N 09°16' W 079°55'0 0.3
2017-Aug-13 09:30N 09°17' W 079°55'0 0.7
2017-Aug-13 09:00N 09°17' W 079°55'1 1.1
2017-Aug-13 08:30N 09°17' W 079°55'2 4.0
2017-Aug-13 08:00N 09°19' W 079°55'3 6.9
2017-Aug-13 07:30N 09°23' W 079°55'4 7.1
2017-Aug-13 07:00N 09°26' W 079°56'2 4.7
2017-Aug-13 06:30N 09°25' W 079°58'0 0.2
2017-Aug-13 05:59N 09°25' W 079°58'0 0.0
2017-Aug-13 05:29N 09°25' W 079°58'0 0.0
2017-Aug-13 04:59N 09°25' W 079°58'0 0.0
2017-Aug-13 04:29N 09°25' W 079°58'0 0.0
2017-Aug-13 03:59N 09°25' W 079°58'0 0.2
2017-Aug-13 03:29N 09°25' W 079°58'1 1.6
2017-Aug-13 03:01N 09°25' W 079°57'3 5.3
2017-Aug-13 02:30N 09°26' W 079°55'3 5.7
2017-Aug-13 02:01N 09°29' W 079°53'1 2.7
2017-Aug-13 01:31N 09°30' W 079°53'611.0
2017-Aug-13 01:00N 09°35' W 079°51'714.1
2017-Aug-13 00:30N 09°42' W 079°50'815.4
2017-Aug-12 23:59N 09°50' W 079°48'  

Dump ship's entire track history